Airfield :
LOGIN :

Register | Disclaimer

   EN    FR    IT 

 










Legend :    VFR   Marginal VFR   IFR   Intensive IFR   Very Intensive IFR
Visi :
Ceiling :
>= 8 km
>= 3000ft
5 to 8 km
1000 to 3000 ft
1500m to 5 km
500 to 1000 ft
800 to 1500m
200 to 500 ft
< 800m
< 200 ft
Symbols :   Thunderstorms  Fog  Heavy snow  Heavy precipitations  Wind > 20 kt
SIGMETs :     Misc.  Thunderstorms  Icing  Turbulence  Mountain Waves  Volcanic Ashes






- Airport Elevation : 297 ft
- IATA code : UIP


LFRQ - Quimper Pluguffan

CURRENT METAR :
  • 231830Z AUTO 03011KT CAVOK 17/07 Q1023 NOSIG

EXPIRED METARs :
  • 231800Z AUTO 02010KT 340V050 CAVOK 18/07 Q1023 NOSIG
  • 231730Z AUTO 02010KT 330V050 CAVOK 19/08 Q1023 NOSIG
  • 231700Z AUTO 02008KT 340V060 9999 FEW049 19/07 Q1023 NOSIG
  • 231630Z AUTO 05010KT 010V080 CAVOK 19/08 Q1023 NOSIG
  • 231600Z AUTO 03010KT 010V070 CAVOK 20/08 Q1023 NOSIG

TAF TAF LFRQ
Valid from the 23 at 18:00 until the 24 at 18:00 UTC


231700Z 2318/2418 04010KT 9999 SCT035
PROB40
TEMPO 2403/2407 0500 FG VV///



MET'MAP, your aeronautical weather chart ! - Copyright ORBIFLY December 2007 - Disclaimer

ORBIFLY MET'MAP TEAM :

Programming & Development : Alexandra Zaïnal
Concept & original design : Baudouin d'Aumeries
Assistance for programming : Marc-Olivier Méhu
Technical & hardware support : Manuel Goepfert

Contact : metmap@orbifly.com




SOURCES & CREDITS :

   NOAA